Latest Coastal Weather Observations for Evans Head

IDN60701

Issued at 2:21 am EDT Tuesday 12 December 2017 (issued every 10 minutes, with the page automatically refreshed every 10 minutes)

About coastal observations | Map of coastal stations | Coastal observations for NSW | Marine services | Other Formats
Station Details ID: 058212 Name: EVANS HEAD RAAF BOMBING RANGE AWS Lat: -29.18 Lon: 153.40 Height: 62.5 m
Data from the previous 72 hours. | See also: Recent months at Evans Head
Date/Time
EDT
Temp
°C
Wind Pressure Rain since
9am
mm
Weather Cloud Vis
km
Sea
Height
m
Swell
Dir  Spd
kts
Gust
kts
hPa Trend Height
m
Period
s
Dir
12/02:00am 18.8 WSW 7 9 1017.0 - 0.0 - - - - - - -
12/01:30am 18.4 WSW 6 9 1017.5 - 0.0 - - - - - - -
12/01:00am 20.5 SSE 7 11 1017.6 - 0.0 - - - - - - -
12/12:30am 21.1 SE 8 13 1017.9 - 0.0 - - - - - - -
12/12:00am 21.1 SE 10 13 1018.1 - 0.0 - - - - - - -
 
Date/Time
EDT
Temp
°C
Wind Pressure Rain since
9am
mm
Weather Cloud Vis
km
Sea
Height
m
Swell
Dir  Spd
kts
Gust
kts
hPa Trend Height
m
Period
s
Dir
11/11:30pm 21.3 SSE 9 12 1018.4 - 0.0 - - - - - - -
11/11:00pm 21.1 SSE 10 13 1018.6 - 0.0 - - - - - - -
11/10:30pm 21.0 SSE 11 15 1018.6 - 0.0 - - - - - - -
11/10:00pm 21.4 SSE 11 15 1018.3 - 0.0 - - - - - - -
11/09:30pm 20.9 SSE 10 12 1018.2 - 0.0 - - - - - - -
11/09:00pm 21.0 SSE 10 13 1018.0 - 0.0 - - - - - - -
11/08:30pm 21.2 SSE 11 15 1017.8 - 0.0 - - - - - - -
11/08:00pm 21.3 SSE 11 15 1017.7 - 0.0 - - - - - - -
11/07:30pm 21.1 SSE 11 16 1017.3 - 0.0 - - - - - - -
11/07:00pm 22.0 SSE 11 16 1017.0 - 0.0 - - - - - - -
11/06:30pm 23.0 SSE 9 12 1016.7 - 0.0 - - - - - - -
11/06:00pm 23.4 SSE 11 14 1016.5 - 0.0 - - - - - - -
11/05:30pm 24.2 SSE 10 15 1016.4 - 0.0 - - - - - - -
11/05:00pm 23.8 SSE 13 18 1016.3 - 0.0 - - - - - - -
11/04:30pm 24.6 SSE 12 17 1016.4 - 0.0 - - - - - - -
11/04:00pm 26.1 SSE 12 17 1016.7 - 0.0 - - - - - - -
11/03:30pm 25.9 SSE 12 18 1017.0 - 0.0 - - - - - - -
11/03:00pm 25.5 SSE 13 19 1017.1 - 0.0 - - - - - - -
11/02:30pm 26.5 SSE 13 17 1017.3 - 0.0 - - - - - - -
11/02:00pm 26.5 SSE 14 19 1017.5 - 0.0 - - - - - - -
11/01:30pm 26.4 SSE 14 18 1017.9 - 0.0 - - - - - - -
11/01:00pm 26.8 SSE 14 19 1018.3 - 0.0 - - - - - - -
11/12:30pm 25.8 SSE 15 19 1018.7 - 0.0 - - - - - - -
11/12:00pm 26.1 SSE 14 19 1018.9 - 0.0 - - - - - - -
11/11:30am 26.2 S 14 19 1019.1 - 0.0 - - - - - - -
11/11:00am 25.9 S 13 19 1019.0 - 0.0 - - - - - - -
11/10:30am 25.7 SSE 13 19 1019.2 - 0.0 - - - - - - -
11/10:00am 24.8 SSE 13 17 1019.2 - 0.0 - - - - - - -
11/09:30am 25.1 SSE 12 16 1019.3 - 0.0 - - - - - - -
11/09:00am 25.4 SSE 13 17 1019.4 - 0.0 - - - - - - -
11/08:30am 24.8 SSE 12 15 1019.1 - 0.0 - - - - - - -
11/08:00am 23.7 S 8 11 1019.0 - 0.0 - - - - - - -
11/07:30am 22.1 S 6 9 1018.8 - 0.0 - - - - - - -
11/07:00am 19.3 SW 5 8 1018.6 - 0.0 - - - - - - -
11/06:30am 18.8 WSW 5 7 1018.5 - 0.0 - - - - - - -
11/06:00am 18.4 WSW 7 8 1018.4 - 0.0 - - - - - - -
11/05:30am 18.7 WSW 6 7 1018.1 - 0.0 - - - - - - -
11/05:00am 19.0 SW 6 8 1018.0 - 0.0 - - - - - - -
11/04:30am 19.1 WSW 5 7 1017.9 - 0.0 - - - - - - -
11/04:00am 20.3 SSE 8 11 1017.8 - 0.0 - - - - - - -
11/03:30am 20.3 SSE 9 12 1017.8 - 0.0 - - - - - - -
11/03:00am 20.7 SSE 9 12 1017.9 - 0.0 - - - - - - -
11/02:30am 20.6 SSE 9 11 1018.2 - 0.0 - - - - - - -
11/02:00am 20.6 SSE 9 11 1018.5 - 0.0 - - - - - - -
11/01:30am 20.8 SSE 10 13 1018.9 - 0.0 - - - - - - -
11/01:00am 21.2 SSE 11 14 1019.2 - 0.0 - - - - - - -
11/12:30am 20.9 SSE 8 10 1019.6 - 0.0 - - - - - - -
11/12:00am 20.9 SSE 8 10 1019.9 - 0.0 - - - - - - -
 
Date/Time
EDT
Temp
°C
Wind Pressure Rain since
9am
mm
Weather Cloud Vis
km
Sea
Height
m
Swell
Dir  Spd
kts
Gust
kts
hPa Trend Height
m
Period
s
Dir
10/11:30pm 21.1 SSE 9 13 1020.1 - 0.0 - - - - - - -
10/11:00pm 21.4 SE 10 14 1020.2 - 0.0 - - - - - - -
10/10:30pm 21.7 SE 13 19 1020.1 - 0.0 - - - - - - -
10/10:00pm 21.6 SSE 10 15 1020.2 - 0.0 - - - - - - -
10/09:30pm 21.7 SSE 10 14 1020.1 - 0.0 - - - - - - -
10/09:00pm 21.7 SSE 10 14 1019.9 - 0.0 - - - - - - -
10/08:30pm 21.7 SSE 10 14 1019.7 - 0.0 - - - - - - -
10/08:00pm 21.6 SE 10 14 1019.6 - 0.0 - - - - - - -
10/07:30pm 21.8 SSE 10 13 1019.4 - 0.0 - - - - - - -
10/07:00pm 22.6 SSE 12 16 1019.2 - 0.0 - - - - - - -
10/06:30pm 23.0 SE 11 18 1019.0 - 0.0 - - - - - - -
10/06:00pm 23.8 SSE 13 17 1018.7 - 0.0 - - - - - - -
10/05:30pm 24.5 SSE 13 17 1018.6 - 0.0 - - - - - - -
10/05:00pm 24.5 SSE 14 19 1018.6 - 0.0 - - - - - - -
10/04:30pm 25.6 SSE 15 20 1018.7 - 0.0 - - - - - - -
10/04:00pm 25.7 SSE 14 19 1018.7 - 0.0 - - - - - - -
10/03:30pm 25.4 SSE 16 21 1018.8 - 0.0 - - - - - - -
10/03:00pm 26.1 SSE 15 21 1018.9 - 0.0 - - - - - - -
10/02:30pm 26.0 SSE 17 23 1018.9 - 0.0 - - - - - - -
10/02:00pm 26.9 SSE 18 23 1019.0 - 0.0 - - - - - - -
10/01:30pm 25.2 SSE 15 22 1019.3 - 0.0 - - - - - - -
10/01:00pm 25.8 S 17 23 1019.4 - 0.0 - - - - - - -
10/12:30pm 25.8 S 18 24 1019.7 - 0.0 - - - - - - -
10/12:00pm 25.1 S 19 26 1019.7 - 0.0 - - - - - - -
10/11:30am 24.7 S 18 24 1020.1 - 0.0 - - - - - - -
10/11:00am 24.7 S 16 20 1020.1 - 0.0 - - - - - - -
10/10:30am 25.3 S 14 21 1020.0 - 0.0 - - - - - - -
10/10:00am 24.7 S 13 17 1019.9 - 0.0 - - - - - - -
10/09:30am 24.9 S 12 19 1020.0 - 0.0 - - - - - - -
10/09:00am 24.1 S 11 15 1020.0 - 0.6 - - - - - - -
10/08:30am 23.3 SSW 11 15 1019.8 - 0.6 - - - - - - -
10/08:00am 22.4 SSW 10 15 1019.9 - 0.6 - - - - - - -
10/07:30am 21.1 SSW 9 16 1019.6 - 0.6 - - - - - - -
10/07:00am 19.4 SW 7 11 1019.2 - 0.6 - - - - - - -
10/06:30am 18.8 SW 11 16 1018.7 - 0.6 - - - - - - -
10/06:00am 18.3 SSW 12 16 1018.3 - 0.6 - - - - - - -
10/05:30am 18.0 SW 10 14 1018.1 - 0.6 - - - - - - -
10/05:00am 17.8 WSW 9 12 1018.2 - 0.6 - - - - - - -
10/04:30am 18.2 SW 9 12 1018.2 - 0.6 - - - - - - -
10/04:00am 18.1 WSW 9 11 1018.2 - 0.6 - - - - - - -
10/03:30am 18.3 SW 9 12 1018.1 - 0.6 - - - - - - -
10/03:00am 18.7 SW 11 14 1018.0 - 0.6 - - - - - - -
10/02:30am 18.8 SW 10 15 1018.1 - 0.6 - - - - - - -
10/02:00am 18.9 SW 7 12 1018.0 - 0.6 - - - - - - -
10/01:30am 18.9 WSW 8 11 1018.2 - 0.6 - - - - - - -
10/01:00am 18.9 WSW 9 13 1018.3 - 0.6 - - - - - - -
10/12:30am 18.9 WSW 9 11 1018.5 - 0.6 - - - - - - -
10/12:00am 19.2 SW 9 12 1018.5 - 0.6 - - - - - - -
 
Date/Time
EDT
Temp
°C
Wind Pressure Rain since
9am
mm
Weather Cloud Vis
km
Sea
Height
m
Swell
Dir  Spd
kts
Gust
kts
hPa Trend Height
m
Period
s
Dir
09/11:30pm 19.8 SW 9 13 1018.5 - 0.6 - - - - - - -
09/11:00pm 19.6 SW 8 12 1018.6 - 0.6 - - - - - - -
09/10:30pm 20.0 SW 9 12 1018.5 - 0.6 - - - - - - -
09/10:00pm 20.3 SW 10 14 1018.2 - 0.6 - - - - - - -
09/09:30pm 20.6 SSW 10 13 1017.9 - 0.6 - - - - - - -
09/09:00pm 20.3 SSW 10 14 1018.0 - 0.6 - - - - - - -
09/08:30pm 20.7 SSW 12 18 1017.5 - 0.6 - - - - - - -
09/08:00pm 21.2 SSE 13 17 1017.3 - 0.6 - - - - - - -
09/07:30pm 21.7 S 11 16 1017.1 - 0.6 - - - - - - -
09/07:00pm 22.6 SSE 9 12 1016.5 - 0.6 - - - - - - -
09/06:30pm 22.0 S 12 17 1016.4 - 0.6 - - - - - - -
09/06:00pm 22.6 S 12 16 1015.9 - 0.6 - - - - - - -
09/05:30pm 22.6 S 13 19 1015.4 - 0.6 - - - - - - -
09/05:00pm 21.7 SW 7 12 1014.8 - 0.6 - - - - - - -
09/04:30pm 20.7 SW 9 14 1014.8 - 0.6 - - - - - - -
09/04:05pm 21.7 SSE 15 25 1014.0 - 0.2 - - - - - - -
09/04:00pm 21.9 SE 18 25 1013.5 - 0.2 - - - - - - -
09/03:30pm 20.0 SSE 12 16 1014.6 - 0.2 - - - - - - -
09/03:07pm 21.0 S 17 27 1015.0 - 0.2 - - - - - - -
09/03:00pm 21.7 S 16 23 1015.1 - 0.2 Recent precip. - - - - - -
09/02:30pm 22.6 S 13 19 1015.5 - 0.0 - - - - - - -
09/02:00pm 25.2 S 17 23 1015.1 - 0.0 - - - - - - -
09/01:30pm 25.9 SSE 15 22 1014.7 - 0.0 - - - - - - -
09/01:00pm 25.9 S 15 21 1015.0 - 0.0 - - - - - - -
09/12:30pm 25.7 SSE 16 22 1015.2 - 0.0 - - - - - - -
09/12:00pm 25.1 S 19 26 1015.4 - 0.0 - - - - - - -
09/11:30am 25.2 S 19 26 1015.5 - 0.0 - - - - - - -
09/11:00am 25.3 S 19 27 1015.4 - 0.0 - - - - - - -
09/10:30am 25.1 S 19 25 1015.4 - 0.0 - - - - - - -
09/10:07am 25.5 S 17 27 1015.5 - 0.0 - - - - - - -
09/10:00am 25.0 S 19 26 1015.4 - 0.0 - - - - - - -
09/09:30am 25.2 S 15 21 1015.4 - 0.0 - - - - - - -
09/09:00am 24.7 SSE 12 15 1015.5 - 0.0 - - - - - - -
09/08:30am 23.9 S 11 14 1015.1 - 0.0 - - - - - - -
09/08:00am 23.6 S 7 11 1014.8 - 0.0 - - - - - - -
09/07:30am 22.1 S 8 11 1014.6 - 0.0 - - - - - - -
09/07:00am 21.2 S 7 10 1014.0 - 0.0 - - - - - - -
09/06:30am 20.0 S 7 8 1013.5 - 0.0 - - - - - - -
09/06:00am 19.1 SSW 9 10 1013.5 - 0.0 - - - - - - -
09/05:30am 19.1 S 8 10 1013.3 - 0.0 - - - - - - -
09/05:00am 19.2 S 9 12 1012.9 - 0.0 - - - - - - -
09/04:30am 19.6 SSW 7 9 1012.7 - 0.0 - - - - - - -
09/04:00am 20.0 SSW 8 9 1012.7 - 0.0 - - - - - - -
09/03:30am 20.1 SSW 8 10 1012.6 - 0.0 - - - - - - -
09/03:00am 20.6 S 9 12 1012.6 - 0.0 - - - - - - -
09/02:30am 21.0 S 11 14 1012.5 - 0.0 - - - - - - -

Other Formats:

Comma delimited format used in spreadsheet applications
http://www.bom.gov.au/fwo/IDN60701/IDN60701.94598.axf

JavaScript Object Notation format (JSON) in row-major order
http://www.bom.gov.au/fwo/IDN60701/IDN60701.94598.json